Clarita, Oklahoma
Current Conditions -  °F | °C
As of 3:15 PM on Tuesday 21 Oct 2014 (Local Time) from KAQR Reporting Station
Scattered Clouds Scattered Clouds  
Wind Chill: 79°   Ceiling: Unl
Heat Index: 80°   Visibility: 10mi
Dew Point: 59°   Wind: 0mph
Humidity: 51%   Direction: NA
Pressure: 30.05"   Gusts: NA
Location:  34.48°N, 96.43°W
Report Text: KAQR 212015Z AUTO 00000KT 10SM SCT043 SCT055 26/15 A3005 RMK AO2
Loading
Personal Weather Stations






























Interactive Weather Map
Tropical Storm Tracking
New forecast layout! Learn more

10-Day Weather Forecast

Advertisements
Track Severe Weather on mobile